ESSV/VBY METAR and TAF weather

Enter ICAO airport designator
Station Type Date Time Source
ESSV METAR 2018/10/21 04:20 UTC NOAA

ESSV 210420Z AUTO 19006KT 0200 R03/0700N R21/0800N NCD 02/02 Q1024


Station Type Date Time Source
ESSV Decoded METAR 2018/10/21 04:20 UTC NOAA

Visby Flygplats, Sweden (ESSV) 57-40N 018-21E 47M
Oct 21, 2018 - 12:20 AM EDT / 2018.10.21 0420 UTC
Wind: from the S (190 degrees) at 7 MPH (6 KT):0
Visibility: less than 1 mile:0
Temperature: 35 F (2 C)
Windchill: 28 F (-2 C):1
Dew Point: 35 F (2 C)
Relative Humidity: 100%
Pressure (altimeter): 30.24 in. Hg (1024 hPa)
ob: ESSV 210420Z AUTO 19006KT 0200 R03/0700N R21/0800N NCD 02/02 Q1024
cycle: 4

Station Type Date Time Source
ESSV TAF 2017/09/20 09:39 UTC NOAA

TAF COR TAF COR ESSV 200840Z 2009/2021 10005KT 9999 BKN030 PROB40 2009/2016 4000 TS SHRA BKN015CB


Example: see airport list